sensor_id;sensor_type;location;lat;lon;timestamp;P1;durP1;ratioP1;P2;durP2;ratioP2
11807;SDS011;5961;42.640;23.380;2023-12-28T00:01:13;18.53;;;9.87;;
11807;SDS011;5961;42.640;23.380;2023-12-28T00:03:41;21.70;;;9.13;;
11807;SDS011;5961;42.640;23.380;2023-12-28T00:06:08;15.90;;;8.60;;
11807;SDS011;5961;42.640;23.380;2023-12-28T00:08:35;20.37;;;8.47;;
11807;SDS011;5961;42.640;23.380;2023-12-28T00:11:01;18.70;;;8.90;;
11807;SDS011;5961;42.640;23.380;2023-12-28T00:13:28;17.03;;;9.13;;
11807;SDS011;5961;42.640;23.380;2023-12-28T00:15:55;20.70;;;8.80;;
11807;SDS011;5961;42.640;23.380;2023-12-28T00:18:21;20.87;;;8.87;;
11807;SDS011;5961;42.640;23.380;2023-12-28T00:20:49;21.87;;;9.57;;
11807;SDS011;5961;42.640;23.380;2023-12-28T00:23:16;21.97;;;9.70;;
11807;SDS011;5961;42.640;23.380;2023-12-28T00:25:45;20.60;;;9.87;;
11807;SDS011;5961;42.640;23.380;2023-12-28T00:28:12;18.47;;;9.47;;
11807;SDS011;5961;42.640;23.380;2023-12-28T00:30:38;19.50;;;10.27;;
11807;SDS011;5961;42.640;23.380;2023-12-28T00:33:05;18.93;;;8.70;;
11807;SDS011;5961;42.640;23.380;2023-12-28T00:35:32;19.43;;;9.40;;
11807;SDS011;5961;42.640;23.380;2023-12-28T00:38:00;16.00;;;8.70;;
11807;SDS011;5961;42.640;23.380;2023-12-28T00:40:26;20.03;;;9.57;;
11807;SDS011;5961;42.640;23.380;2023-12-28T00:42:53;18.27;;;8.77;;
11807;SDS011;5961;42.640;23.380;2023-12-28T00:45:20;18.77;;;9.63;;
11807;SDS011;5961;42.640;23.380;2023-12-28T00:47:46;18.83;;;9.77;;
11807;SDS011;5961;42.640;23.380;2023-12-28T00:50:13;20.10;;;10.43;;
11807;SDS011;5961;42.640;23.380;2023-12-28T00:52:40;24.23;;;10.43;;
11807;SDS011;5961;42.640;23.380;2023-12-28T00:55:09;21.97;;;10.30;;
11807;SDS011;5961;42.640;23.380;2023-12-28T00:57:37;19.10;;;9.87;;
11807;SDS011;5961;42.640;23.380;2023-12-28T01:00:04;18.90;;;9.67;;
11807;SDS011;5961;42.640;23.380;2023-12-28T01:02:31;22.53;;;10.53;;
11807;SDS011;5961;42.640;23.380;2023-12-28T01:04:58;20.40;;;9.60;;
11807;SDS011;5961;42.640;23.380;2023-12-28T01:07:25;22.87;;;10.17;;
11807;SDS011;5961;42.640;23.380;2023-12-28T01:09:51;21.07;;;9.63;;
11807;SDS011;5961;42.640;23.380;2023-12-28T01:12:19;21.43;;;10.03;;
11807;SDS011;5961;42.640;23.380;2023-12-28T01:14:46;19.23;;;9.40;;
11807;SDS011;5961;42.640;23.380;2023-12-28T01:17:13;18.37;;;8.67;;
11807;SDS011;5961;42.640;23.380;2023-12-28T01:19:39;19.77;;;9.17;;
11807;SDS011;5961;42.640;23.380;2023-12-28T01:22:06;18.10;;;8.73;;
11807;SDS011;5961;42.640;23.380;2023-12-28T01:24:33;16.83;;;7.87;;
11807;SDS011;5961;42.640;23.380;2023-12-28T01:26:59;19.33;;;8.90;;
11807;SDS011;5961;42.640;23.380;2023-12-28T01:29:27;16.87;;;8.53;;
11807;SDS011;5961;42.640;23.380;2023-12-28T01:31:54;18.43;;;8.43;;
11807;SDS011;5961;42.640;23.380;2023-12-28T01:34:21;19.00;;;9.20;;
11807;SDS011;5961;42.640;23.380;2023-12-28T01:36:47;19.77;;;8.77;;
11807;SDS011;5961;42.640;23.380;2023-12-28T01:39:14;18.60;;;8.83;;
11807;SDS011;5961;42.640;23.380;2023-12-28T01:41:43;17.67;;;9.27;;
11807;SDS011;5961;42.640;23.380;2023-12-28T01:44:10;16.70;;;9.30;;
11807;SDS011;5961;42.640;23.380;2023-12-28T01:46:38;18.93;;;9.07;;
11807;SDS011;5961;42.640;23.380;2023-12-28T01:49:06;17.17;;;8.77;;
11807;SDS011;5961;42.640;23.380;2023-12-28T01:51:34;16.60;;;8.80;;
11807;SDS011;5961;42.640;23.380;2023-12-28T01:54:01;20.07;;;9.10;;
11807;SDS011;5961;42.640;23.380;2023-12-28T01:56:28;20.27;;;9.37;;
11807;SDS011;5961;42.640;23.380;2023-12-28T01:58:55;22.27;;;9.07;;
11807;SDS011;5961;42.640;23.380;2023-12-28T02:01:21;21.03;;;9.33;;
11807;SDS011;5961;42.640;23.380;2023-12-28T02:03:52;18.63;;;8.67;;
11807;SDS011;5961;42.640;23.380;2023-12-28T02:06:20;19.83;;;9.10;;
11807;SDS011;5961;42.640;23.380;2023-12-28T02:08:49;15.77;;;8.20;;
11807;SDS011;5961;42.640;23.380;2023-12-28T02:11:16;14.73;;;7.33;;
11807;SDS011;5961;42.640;23.380;2023-12-28T02:13:43;18.00;;;7.80;;
11807;SDS011;5961;42.640;23.380;2023-12-28T02:16:11;15.33;;;6.40;;
11807;SDS011;5961;42.640;23.380;2023-12-28T02:18:42;14.53;;;7.33;;
11807;SDS011;5961;42.640;23.380;2023-12-28T02:21:11;13.80;;;7.33;;
11807;SDS011;5961;42.640;23.380;2023-12-28T02:23:39;14.97;;;7.80;;
11807;SDS011;5961;42.640;23.380;2023-12-28T02:26:07;18.77;;;7.97;;
11807;SDS011;5961;42.640;23.380;2023-12-28T02:28:33;17.53;;;8.17;;
11807;SDS011;5961;42.640;23.380;2023-12-28T02:31:00;19.27;;;8.83;;
11807;SDS011;5961;42.640;23.380;2023-12-28T02:33:33;19.07;;;8.60;;
11807;SDS011;5961;42.640;23.380;2023-12-28T02:36:04;19.00;;;8.43;;
11807;SDS011;5961;42.640;23.380;2023-12-28T02:38:36;17.97;;;8.63;;
11807;SDS011;5961;42.640;23.380;2023-12-28T02:41:03;17.10;;;8.40;;
11807;SDS011;5961;42.640;23.380;2023-12-28T02:43:32;21.30;;;9.37;;
11807;SDS011;5961;42.640;23.380;2023-12-28T02:45:59;23.67;;;9.80;;
11807;SDS011;5961;42.640;23.380;2023-12-28T02:48:26;21.73;;;9.47;;
11807;SDS011;5961;42.640;23.380;2023-12-28T02:50:52;21.47;;;8.90;;
11807;SDS011;5961;42.640;23.380;2023-12-28T02:53:19;22.03;;;10.10;;
11807;SDS011;5961;42.640;23.380;2023-12-28T02:55:45;23.97;;;11.33;;
11807;SDS011;5961;42.640;23.380;2023-12-28T02:58:12;25.97;;;12.60;;
11807;SDS011;5961;42.640;23.380;2023-12-28T03:00:40;26.07;;;12.13;;
11807;SDS011;5961;42.640;23.380;2023-12-28T03:03:07;24.53;;;10.90;;
11807;SDS011;5961;42.640;23.380;2023-12-28T03:05:33;25.33;;;10.67;;
11807;SDS011;5961;42.640;23.380;2023-12-28T03:08:00;22.37;;;10.60;;
11807;SDS011;5961;42.640;23.380;2023-12-28T03:10:27;25.60;;;10.57;;
11807;SDS011;5961;42.640;23.380;2023-12-28T03:12:54;19.40;;;9.90;;
11807;SDS011;5961;42.640;23.380;2023-12-28T03:15:20;20.17;;;10.23;;
11807;SDS011;5961;42.640;23.380;2023-12-28T03:17:48;21.87;;;10.33;;
11807;SDS011;5961;42.640;23.380;2023-12-28T03:20:15;21.67;;;10.60;;
11807;SDS011;5961;42.640;23.380;2023-12-28T03:22:42;24.53;;;10.20;;
11807;SDS011;5961;42.640;23.380;2023-12-28T03:25:08;21.07;;;9.10;;
11807;SDS011;5961;42.640;23.380;2023-12-28T03:27:35;21.43;;;10.60;;
11807;SDS011;5961;42.640;23.380;2023-12-28T03:30:02;22.27;;;10.77;;
11807;SDS011;5961;42.640;23.380;2023-12-28T03:32:28;22.33;;;10.80;;
11807;SDS011;5961;42.640;23.380;2023-12-28T03:34:56;20.57;;;10.97;;
11807;SDS011;5961;42.640;23.380;2023-12-28T03:37:23;21.87;;;10.63;;
11807;SDS011;5961;42.640;23.380;2023-12-28T03:39:50;21.97;;;11.03;;
11807;SDS011;5961;42.640;23.380;2023-12-28T03:42:17;23.47;;;10.37;;
11807;SDS011;5961;42.640;23.380;2023-12-28T03:44:43;20.93;;;9.70;;
11807;SDS011;5961;42.640;23.380;2023-12-28T03:47:10;19.67;;;9.70;;
11807;SDS011;5961;42.640;23.380;2023-12-28T03:49:37;20.33;;;9.20;;
11807;SDS011;5961;42.640;23.380;2023-12-28T03:52:05;17.20;;;8.87;;
11807;SDS011;5961;42.640;23.380;2023-12-28T03:54:32;20.67;;;9.53;;
11807;SDS011;5961;42.640;23.380;2023-12-28T03:56:58;20.83;;;9.47;;
11807;SDS011;5961;42.640;23.380;2023-12-28T03:59:25;22.90;;;10.10;;
11807;SDS011;5961;42.640;23.380;2023-12-28T04:01:52;22.37;;;10.33;;
11807;SDS011;5961;42.640;23.380;2023-12-28T04:04:18;21.20;;;10.87;;
11807;SDS011;5961;42.640;23.380;2023-12-28T04:06:45;19.90;;;10.03;;
11807;SDS011;5961;42.640;23.380;2023-12-28T04:09:13;22.93;;;10.67;;
11807;SDS011;5961;42.640;23.380;2023-12-28T04:11:40;24.07;;;11.03;;
11807;SDS011;5961;42.640;23.380;2023-12-28T04:14:07;24.17;;;11.90;;
11807;SDS011;5961;42.640;23.380;2023-12-28T04:16:34;25.27;;;11.37;;
11807;SDS011;5961;42.640;23.380;2023-12-28T04:19:00;21.90;;;10.63;;
11807;SDS011;5961;42.640;23.380;2023-12-28T04:21:27;24.93;;;10.83;;
11807;SDS011;5961;42.640;23.380;2023-12-28T04:23:54;22.47;;;10.10;;
11807;SDS011;5961;42.640;23.380;2023-12-28T04:26:22;20.77;;;9.53;;
11807;SDS011;5961;42.640;23.380;2023-12-28T04:28:48;18.07;;;9.70;;
11807;SDS011;5961;42.640;23.380;2023-12-28T04:31:15;18.93;;;9.33;;
11807;SDS011;5961;42.640;23.380;2023-12-28T04:33:42;19.53;;;9.60;;
11807;SDS011;5961;42.640;23.380;2023-12-28T04:36:08;18.17;;;9.33;;
11807;SDS011;5961;42.640;23.380;2023-12-28T04:38:35;15.87;;;8.93;;
11807;SDS011;5961;42.640;23.380;2023-12-28T04:41:03;17.03;;;9.03;;
11807;SDS011;5961;42.640;23.380;2023-12-28T04:43:31;17.10;;;8.27;;
11807;SDS011;5961;42.640;23.380;2023-12-28T04:46:01;17.00;;;8.13;;
11807;SDS011;5961;42.640;23.380;2023-12-28T04:48:28;19.00;;;8.33;;
11807;SDS011;5961;42.640;23.380;2023-12-28T04:50:54;16.70;;;8.30;;
11807;SDS011;5961;42.640;23.380;2023-12-28T04:53:21;17.10;;;7.83;;
11807;SDS011;5961;42.640;23.380;2023-12-28T04:55:48;16.43;;;7.63;;
11807;SDS011;5961;42.640;23.380;2023-12-28T04:58:15;16.40;;;7.90;;
11807;SDS011;5961;42.640;23.380;2023-12-28T05:00:43;13.50;;;7.00;;
11807;SDS011;5961;42.640;23.380;2023-12-28T05:03:09;17.23;;;7.07;;
11807;SDS011;5961;42.640;23.380;2023-12-28T05:05:36;14.07;;;6.77;;
11807;SDS011;5961;42.640;23.380;2023-12-28T05:08:03;13.27;;;6.40;;
11807;SDS011;5961;42.640;23.380;2023-12-28T05:10:30;13.13;;;6.43;;
11807;SDS011;5961;42.640;23.380;2023-12-28T05:12:57;16.37;;;7.17;;
11807;SDS011;5961;42.640;23.380;2023-12-28T05:15:23;13.30;;;6.77;;
11807;SDS011;5961;42.640;23.380;2023-12-28T05:17:51;15.63;;;7.80;;
11807;SDS011;5961;42.640;23.380;2023-12-28T05:20:18;18.43;;;8.57;;
11807;SDS011;5961;42.640;23.380;2023-12-28T05:22:44;13.13;;;6.30;;
11807;SDS011;5961;42.640;23.380;2023-12-28T05:25:11;13.07;;;6.50;;
11807;SDS011;5961;42.640;23.380;2023-12-28T05:27:38;16.13;;;7.43;;
11807;SDS011;5961;42.640;23.380;2023-12-28T05:30:05;16.90;;;7.17;;
11807;SDS011;5961;42.640;23.380;2023-12-28T05:32:33;17.87;;;8.10;;
11807;SDS011;5961;42.640;23.380;2023-12-28T05:35:01;16.43;;;8.00;;
11807;SDS011;5961;42.640;23.380;2023-12-28T05:37:28;16.03;;;7.97;;
11807;SDS011;5961;42.640;23.380;2023-12-28T05:39:55;16.87;;;7.33;;
11807;SDS011;5961;42.640;23.380;2023-12-28T05:42:22;16.67;;;8.53;;
11807;SDS011;5961;42.640;23.380;2023-12-28T05:44:49;17.57;;;7.97;;
11807;SDS011;5961;42.640;23.380;2023-12-28T05:47:16;21.97;;;9.17;;
11807;SDS011;5961;42.640;23.380;2023-12-28T05:49:42;21.47;;;9.47;;
11807;SDS011;5961;42.640;23.380;2023-12-28T05:52:10;19.23;;;9.10;;
11807;SDS011;5961;42.640;23.380;2023-12-28T05:54:40;17.97;;;9.50;;
11807;SDS011;5961;42.640;23.380;2023-12-28T05:57:07;20.63;;;9.70;;
11807;SDS011;5961;42.640;23.380;2023-12-28T05:59:37;20.47;;;9.67;;
11807;SDS011;5961;42.640;23.380;2023-12-28T06:02:04;21.23;;;9.27;;
11807;SDS011;5961;42.640;23.380;2023-12-28T06:04:31;17.13;;;8.97;;
11807;SDS011;5961;42.640;23.380;2023-12-28T06:06:58;18.27;;;8.77;;
11807;SDS011;5961;42.640;23.380;2023-12-28T06:09:26;21.30;;;9.50;;
11807;SDS011;5961;42.640;23.380;2023-12-28T06:11:54;19.30;;;9.13;;
11807;SDS011;5961;42.640;23.380;2023-12-28T06:16:49;20.80;;;9.30;;
11807;SDS011;5961;42.640;23.380;2023-12-28T06:19:16;20.57;;;9.43;;
11807;SDS011;5961;42.640;23.380;2023-12-28T06:21:43;18.50;;;9.27;;
11807;SDS011;5961;42.640;23.380;2023-12-28T06:24:09;21.27;;;9.77;;
11807;SDS011;5961;42.640;23.380;2023-12-28T06:26:40;20.17;;;9.90;;
11807;SDS011;5961;42.640;23.380;2023-12-28T06:29:07;18.87;;;9.07;;
11807;SDS011;5961;42.640;23.380;2023-12-28T06:31:34;18.40;;;9.40;;
11807;SDS011;5961;42.640;23.380;2023-12-28T06:34:01;21.30;;;9.83;;
11807;SDS011;5961;42.640;23.380;2023-12-28T06:36:28;19.83;;;9.23;;
11807;SDS011;5961;42.640;23.380;2023-12-28T06:38:55;20.40;;;9.37;;
11807;SDS011;5961;42.640;23.380;2023-12-28T06:41:22;16.97;;;8.53;;
11807;SDS011;5961;42.640;23.380;2023-12-28T06:43:50;20.70;;;8.43;;
11807;SDS011;5961;42.640;23.380;2023-12-28T06:46:16;19.13;;;8.57;;
11807;SDS011;5961;42.640;23.380;2023-12-28T06:48:43;19.57;;;9.47;;
11807;SDS011;5961;42.640;23.380;2023-12-28T06:51:10;19.73;;;9.67;;
11807;SDS011;5961;42.640;23.380;2023-12-28T06:53:43;18.90;;;9.27;;
11807;SDS011;5961;42.640;23.380;2023-12-28T06:56:09;23.77;;;10.83;;
11807;SDS011;5961;42.640;23.380;2023-12-28T06:58:36;17.87;;;9.83;;
11807;SDS011;5961;42.640;23.380;2023-12-28T07:01:04;25.13;;;12.50;;
11807;SDS011;5961;42.640;23.380;2023-12-28T07:03:31;34.37;;;15.70;;
11807;SDS011;5961;42.640;23.380;2023-12-28T07:05:58;47.53;;;21.40;;
11807;SDS011;5961;42.640;23.380;2023-12-28T07:08:25;41.30;;;21.00;;
11807;SDS011;5961;42.640;23.380;2023-12-28T07:10:51;59.20;;;26.77;;
11807;SDS011;5961;42.640;23.380;2023-12-28T07:13:18;49.00;;;22.53;;
11807;SDS011;5961;42.640;23.380;2023-12-28T07:15:45;55.17;;;26.23;;
11807;SDS011;5961;42.640;23.380;2023-12-28T07:18:13;53.93;;;26.53;;
11807;SDS011;5961;42.640;23.380;2023-12-28T07:20:39;43.87;;;21.30;;
11807;SDS011;5961;42.640;23.380;2023-12-28T07:23:06;44.37;;;21.57;;
11807;SDS011;5961;42.640;23.380;2023-12-28T07:25:33;39.37;;;17.60;;
11807;SDS011;5961;42.640;23.380;2023-12-28T07:28:00;40.60;;;18.00;;
11807;SDS011;5961;42.640;23.380;2023-12-28T07:30:27;40.73;;;18.70;;
11807;SDS011;5961;42.640;23.380;2023-12-28T07:32:54;32.83;;;15.60;;
11807;SDS011;5961;42.640;23.380;2023-12-28T07:35:22;31.73;;;15.63;;
11807;SDS011;5961;42.640;23.380;2023-12-28T07:37:49;31.73;;;13.47;;
11807;SDS011;5961;42.640;23.380;2023-12-28T07:40:16;30.03;;;13.00;;
11807;SDS011;5961;42.640;23.380;2023-12-28T07:42:43;22.83;;;11.77;;
11807;SDS011;5961;42.640;23.380;2023-12-28T07:45:09;25.90;;;12.97;;
11807;SDS011;5961;42.640;23.380;2023-12-28T07:47:36;25.40;;;11.30;;
11807;SDS011;5961;42.640;23.380;2023-12-28T07:50:03;26.33;;;12.60;;
11807;SDS011;5961;42.640;23.380;2023-12-28T07:52:32;32.93;;;15.50;;
11807;SDS011;5961;42.640;23.380;2023-12-28T07:54:58;36.00;;;16.63;;
11807;SDS011;5961;42.640;23.380;2023-12-28T07:57:25;35.87;;;17.83;;
11807;SDS011;5961;42.640;23.380;2023-12-28T07:59:52;40.10;;;19.77;;
11807;SDS011;5961;42.640;23.380;2023-12-28T08:02:18;58.73;;;24.13;;
11807;SDS011;5961;42.640;23.380;2023-12-28T08:04:45;53.80;;;24.23;;
11807;SDS011;5961;42.640;23.380;2023-12-28T08:07:12;52.80;;;25.27;;
11807;SDS011;5961;42.640;23.380;2023-12-28T08:09:40;54.67;;;27.20;;
11807;SDS011;5961;42.640;23.380;2023-12-28T08:12:06;55.33;;;27.73;;
11807;SDS011;5961;42.640;23.380;2023-12-28T08:14:33;57.87;;;27.33;;
11807;SDS011;5961;42.640;23.380;2023-12-28T08:17:00;58.67;;;27.33;;
11807;SDS011;5961;42.640;23.380;2023-12-28T08:19:26;61.53;;;28.63;;
11807;SDS011;5961;42.640;23.380;2023-12-28T08:21:53;62.00;;;29.90;;
11807;SDS011;5961;42.640;23.380;2023-12-28T08:24:20;62.67;;;29.73;;
11807;SDS011;5961;42.640;23.380;2023-12-28T08:26:48;62.00;;;29.40;;
11807;SDS011;5961;42.640;23.380;2023-12-28T08:29:15;67.23;;;32.33;;
11807;SDS011;5961;42.640;23.380;2023-12-28T08:31:43;63.80;;;30.60;;
11807;SDS011;5961;42.640;23.380;2023-12-28T08:34:10;64.27;;;28.57;;
11807;SDS011;5961;42.640;23.380;2023-12-28T08:36:36;57.13;;;26.90;;
11807;SDS011;5961;42.640;23.380;2023-12-28T08:39:03;58.77;;;27.23;;
11807;SDS011;5961;42.640;23.380;2023-12-28T08:41:30;59.57;;;29.90;;
11807;SDS011;5961;42.640;23.380;2023-12-28T08:43:58;65.57;;;29.97;;
11807;SDS011;5961;42.640;23.380;2023-12-28T08:46:24;55.43;;;26.60;;
11807;SDS011;5961;42.640;23.380;2023-12-28T08:48:51;59.17;;;26.33;;
11807;SDS011;5961;42.640;23.380;2023-12-28T08:51:18;110.37;;;51.63;;
11807;SDS011;5961;42.640;23.380;2023-12-28T08:53:45;67.90;;;30.80;;
11807;SDS011;5961;42.640;23.380;2023-12-28T08:56:13;85.50;;;39.50;;
11807;SDS011;5961;42.640;23.380;2023-12-28T08:58:41;84.27;;;37.17;;
11807;SDS011;5961;42.640;23.380;2023-12-28T09:01:10;63.47;;;29.13;;
11807;SDS011;5961;42.640;23.380;2023-12-28T09:03:42;57.13;;;27.07;;
11807;SDS011;5961;42.640;23.380;2023-12-28T09:06:08;60.13;;;28.93;;
11807;SDS011;5961;42.640;23.380;2023-12-28T09:08:35;57.43;;;28.73;;
11807;SDS011;5961;42.640;23.380;2023-12-28T09:11:02;59.40;;;27.57;;
11807;SDS011;5961;42.640;23.380;2023-12-28T09:13:28;59.27;;;27.87;;
11807;SDS011;5961;42.640;23.380;2023-12-28T09:15:56;52.27;;;27.10;;
11807;SDS011;5961;42.640;23.380;2023-12-28T09:18:24;58.30;;;27.07;;
11807;SDS011;5961;42.640;23.380;2023-12-28T09:20:51;56.17;;;27.43;;
11807;SDS011;5961;42.640;23.380;2023-12-28T09:23:17;56.23;;;28.53;;
11807;SDS011;5961;42.640;23.380;2023-12-28T09:25:44;55.93;;;27.37;;
11807;SDS011;5961;42.640;23.380;2023-12-28T09:28:11;63.07;;;29.37;;
11807;SDS011;5961;42.640;23.380;2023-12-28T09:30:38;65.50;;;30.67;;
11807;SDS011;5961;42.640;23.380;2023-12-28T09:33:04;66.07;;;32.13;;
11807;SDS011;5961;42.640;23.380;2023-12-28T09:35:32;59.00;;;30.97;;
11807;SDS011;5961;42.640;23.380;2023-12-28T09:38:01;64.23;;;29.03;;
11807;SDS011;5961;42.640;23.380;2023-12-28T09:40:27;59.63;;;29.77;;
11807;SDS011;5961;42.640;23.380;2023-12-28T09:42:57;52.47;;;28.07;;
11807;SDS011;5961;42.640;23.380;2023-12-28T09:45:30;82.77;;;40.57;;
11807;SDS011;5961;42.640;23.380;2023-12-28T09:47:57;59.00;;;29.20;;
11807;SDS011;5961;42.640;23.380;2023-12-28T09:50:24;80.17;;;42.40;;
11807;SDS011;5961;42.640;23.380;2023-12-28T09:52:53;65.50;;;33.33;;
11807;SDS011;5961;42.640;23.380;2023-12-28T09:55:19;62.23;;;27.87;;
11807;SDS011;5961;42.640;23.380;2023-12-28T09:57:46;57.03;;;28.73;;
11807;SDS011;5961;42.640;23.380;2023-12-28T10:00:13;76.73;;;37.67;;
11807;SDS011;5961;42.640;23.380;2023-12-28T10:02:43;78.20;;;38.47;;
11807;SDS011;5961;42.640;23.380;2023-12-28T10:05:12;78.70;;;39.20;;
11807;SDS011;5961;42.640;23.380;2023-12-28T10:07:40;63.00;;;33.70;;
11807;SDS011;5961;42.640;23.380;2023-12-28T10:10:09;70.50;;;31.37;;
11807;SDS011;5961;42.640;23.380;2023-12-28T10:12:36;63.53;;;31.43;;
11807;SDS011;5961;42.640;23.380;2023-12-28T10:15:04;65.33;;;31.40;;
11807;SDS011;5961;42.640;23.380;2023-12-28T10:17:32;71.30;;;31.13;;
11807;SDS011;5961;42.640;23.380;2023-12-28T10:19:59;60.23;;;30.53;;
11807;SDS011;5961;42.640;23.380;2023-12-28T10:22:29;56.60;;;29.20;;
11807;SDS011;5961;42.640;23.380;2023-12-28T10:24:56;59.60;;;31.60;;
11807;SDS011;5961;42.640;23.380;2023-12-28T10:27:25;71.13;;;34.17;;
11807;SDS011;5961;42.640;23.380;2023-12-28T10:29:53;70.70;;;33.77;;
11807;SDS011;5961;42.640;23.380;2023-12-28T10:32:20;60.53;;;31.20;;
11807;SDS011;5961;42.640;23.380;2023-12-28T10:34:48;68.83;;;35.73;;
11807;SDS011;5961;42.640;23.380;2023-12-28T10:37:15;67.97;;;30.93;;
11807;SDS011;5961;42.640;23.380;2023-12-28T10:39:45;61.37;;;32.10;;
11807;SDS011;5961;42.640;23.380;2023-12-28T10:42:14;62.60;;;32.20;;
11807;SDS011;5961;42.640;23.380;2023-12-28T10:44:49;61.20;;;30.77;;
11807;SDS011;5961;42.640;23.380;2023-12-28T10:47:20;70.27;;;31.50;;
11807;SDS011;5961;42.640;23.380;2023-12-28T10:49:52;70.80;;;33.50;;
11807;SDS011;5961;42.640;23.380;2023-12-28T10:52:21;64.57;;;32.97;;
11807;SDS011;5961;42.640;23.380;2023-12-28T10:54:55;67.17;;;33.17;;
11807;SDS011;5961;42.640;23.380;2023-12-28T10:57:29;72.07;;;35.13;;
11807;SDS011;5961;42.640;23.380;2023-12-28T11:00:07;64.13;;;30.17;;
11807;SDS011;5961;42.640;23.380;2023-12-28T11:02:38;60.77;;;29.80;;
11807;SDS011;5961;42.640;23.380;2023-12-28T11:05:06;58.03;;;29.40;;
11807;SDS011;5961;42.640;23.380;2023-12-28T11:07:34;63.57;;;33.07;;
11807;SDS011;5961;42.640;23.380;2023-12-28T11:10:02;56.20;;;31.30;;
11807;SDS011;5961;42.640;23.380;2023-12-28T11:12:31;60.53;;;28.97;;
11807;SDS011;5961;42.640;23.380;2023-12-28T11:14:58;60.50;;;30.23;;
11807;SDS011;5961;42.640;23.380;2023-12-28T11:17:27;68.43;;;34.77;;
11807;SDS011;5961;42.640;23.380;2023-12-28T11:19:56;60.53;;;30.57;;
11807;SDS011;5961;42.640;23.380;2023-12-28T11:22:24;58.70;;;31.23;;
11807;SDS011;5961;42.640;23.380;2023-12-28T11:24:52;91.47;;;45.10;;
11807;SDS011;5961;42.640;23.380;2023-12-28T11:27:19;64.50;;;31.90;;
11807;SDS011;5961;42.640;23.380;2023-12-28T11:29:47;64.00;;;33.63;;
11807;SDS011;5961;42.640;23.380;2023-12-28T11:32:14;67.37;;;33.47;;
11807;SDS011;5961;42.640;23.380;2023-12-28T11:34:43;70.17;;;39.50;;
11807;SDS011;5961;42.640;23.380;2023-12-28T11:37:12;60.37;;;31.73;;
11807;SDS011;5961;42.640;23.380;2023-12-28T11:39:44;68.27;;;35.73;;
11807;SDS011;5961;42.640;23.380;2023-12-28T11:42:11;67.30;;;34.50;;
11807;SDS011;5961;42.640;23.380;2023-12-28T11:44:38;58.20;;;31.03;;
11807;SDS011;5961;42.640;23.380;2023-12-28T11:47:13;70.50;;;36.93;;
11807;SDS011;5961;42.640;23.380;2023-12-28T11:49:40;70.63;;;37.50;;
11807;SDS011;5961;42.640;23.380;2023-12-28T11:52:08;68.77;;;34.53;;
11807;SDS011;5961;42.640;23.380;2023-12-28T11:54:36;76.70;;;38.53;;
11807;SDS011;5961;42.640;23.380;2023-12-28T11:57:03;62.07;;;31.23;;
11807;SDS011;5961;42.640;23.380;2023-12-28T11:59:31;60.20;;;31.77;;
11807;SDS011;5961;42.640;23.380;2023-12-28T12:01:58;59.50;;;30.60;;
11807;SDS011;5961;42.640;23.380;2023-12-28T12:04:25;56.20;;;30.70;;
11807;SDS011;5961;42.640;23.380;2023-12-28T12:06:52;57.27;;;29.60;;
11807;SDS011;5961;42.640;23.380;2023-12-28T12:09:20;62.73;;;32.80;;
11807;SDS011;5961;42.640;23.380;2023-12-28T12:11:47;62.87;;;32.40;;
11807;SDS011;5961;42.640;23.380;2023-12-28T12:14:14;56.23;;;28.83;;
11807;SDS011;5961;42.640;23.380;2023-12-28T12:16:41;57.47;;;30.27;;
11807;SDS011;5961;42.640;23.380;2023-12-28T12:19:08;58.23;;;29.87;;
11807;SDS011;5961;42.640;23.380;2023-12-28T12:21:35;46.97;;;27.13;;
11807;SDS011;5961;42.640;23.380;2023-12-28T12:24:02;47.37;;;26.10;;
11807;SDS011;5961;42.640;23.380;2023-12-28T12:26:31;52.90;;;27.63;;
11807;SDS011;5961;42.640;23.380;2023-12-28T12:29:01;50.57;;;27.37;;
11807;SDS011;5961;42.640;23.380;2023-12-28T12:31:28;52.03;;;27.90;;
11807;SDS011;5961;42.640;23.380;2023-12-28T12:33:55;48.20;;;27.13;;
11807;SDS011;5961;42.640;23.380;2023-12-28T12:36:21;47.37;;;25.00;;
11807;SDS011;5961;42.640;23.380;2023-12-28T12:38:48;46.53;;;24.40;;
11807;SDS011;5961;42.640;23.380;2023-12-28T12:41:15;46.92;;;25.30;;
11807;SDS011;5961;42.640;23.380;2023-12-28T12:43:43;48.15;;;26.92;;
11807;SDS011;5961;42.640;23.380;2023-12-28T12:46:11;62.40;;;34.92;;
11807;SDS011;5961;42.640;23.380;2023-12-28T12:48:38;62.08;;;33.40;;
11807;SDS011;5961;42.640;23.380;2023-12-28T12:51:05;60.97;;;34.25;;
11807;SDS011;5961;42.640;23.380;2023-12-28T12:53:33;48.72;;;27.23;;
11807;SDS011;5961;42.640;23.380;2023-12-28T12:56:00;44.47;;;26.27;;
11807;SDS011;5961;42.640;23.380;2023-12-28T12:58:27;43.30;;;24.92;;
11807;SDS011;5961;42.640;23.380;2023-12-28T13:00:57;42.42;;;25.35;;
11807;SDS011;5961;42.640;23.380;2023-12-28T13:03:27;53.92;;;29.92;;
11807;SDS011;5961;42.640;23.380;2023-12-28T13:05:54;51.35;;;29.38;;
11807;SDS011;5961;42.640;23.380;2023-12-28T13:08:21;57.78;;;32.47;;
11807;SDS011;5961;42.640;23.380;2023-12-28T13:10:48;48.53;;;27.17;;
11807;SDS011;5961;42.640;23.380;2023-12-28T13:13:14;48.25;;;28.30;;
11807;SDS011;5961;42.640;23.380;2023-12-28T13:15:41;53.40;;;27.10;;
11807;SDS011;5961;42.640;23.380;2023-12-28T13:18:09;56.35;;;27.50;;
11807;SDS011;5961;42.640;23.380;2023-12-28T13:20:36;44.00;;;26.73;;
11807;SDS011;5961;42.640;23.380;2023-12-28T13:23:03;44.83;;;24.48;;
11807;SDS011;5961;42.640;23.380;2023-12-28T13:25:30;45.60;;;27.02;;
11807;SDS011;5961;42.640;23.380;2023-12-28T13:27:56;57.22;;;30.13;;
11807;SDS011;5961;42.640;23.380;2023-12-28T13:30:23;57.25;;;33.78;;
11807;SDS011;5961;42.640;23.380;2023-12-28T13:32:53;46.85;;;29.40;;
11807;SDS011;5961;42.640;23.380;2023-12-28T13:35:21;53.80;;;30.58;;
11807;SDS011;5961;42.640;23.380;2023-12-28T13:37:48;43.92;;;26.30;;
11807;SDS011;5961;42.640;23.380;2023-12-28T13:40:15;45.45;;;27.15;;
11807;SDS011;5961;42.640;23.380;2023-12-28T13:42:42;50.70;;;28.85;;
11807;SDS011;5961;42.640;23.380;2023-12-28T13:45:08;43.60;;;27.20;;
11807;SDS011;5961;42.640;23.380;2023-12-28T13:47:35;54.17;;;28.35;;
11807;SDS011;5961;42.640;23.380;2023-12-28T13:50:02;44.50;;;22.55;;
11807;SDS011;5961;42.640;23.380;2023-12-28T13:52:30;58.42;;;33.20;;
11807;SDS011;5961;42.640;23.380;2023-12-28T13:54:57;45.88;;;26.63;;
11807;SDS011;5961;42.640;23.380;2023-12-28T13:57:24;49.00;;;29.58;;
11807;SDS011;5961;42.640;23.380;2023-12-28T13:59:50;51.92;;;29.23;;
11807;SDS011;5961;42.640;23.380;2023-12-28T14:02:17;60.47;;;31.02;;
11807;SDS011;5961;42.640;23.380;2023-12-28T14:04:44;54.80;;;31.48;;
11807;SDS011;5961;42.640;23.380;2023-12-28T14:07:10;56.17;;;32.67;;
11807;SDS011;5961;42.640;23.380;2023-12-28T14:09:38;55.17;;;32.28;;
11807;SDS011;5961;42.640;23.380;2023-12-28T14:12:05;43.58;;;23.88;;
11807;SDS011;5961;42.640;23.380;2023-12-28T14:14:32;39.55;;;23.02;;
11807;SDS011;5961;42.640;23.380;2023-12-28T14:16:59;53.47;;;27.85;;
11807;SDS011;5961;42.640;23.380;2023-12-28T14:19:26;65.07;;;35.33;;
11807;SDS011;5961;42.640;23.380;2023-12-28T14:21:53;79.00;;;46.00;;
11807;SDS011;5961;42.640;23.380;2023-12-28T14:24:20;69.38;;;36.67;;
11807;SDS011;5961;42.640;23.380;2023-12-28T14:26:48;57.45;;;30.33;;
11807;SDS011;5961;42.640;23.380;2023-12-28T14:29:18;64.40;;;37.35;;